Taos Ski Valley, NM (87525)

6:52 PM MDT on August 24, 2016 (GMT -0600)
Blueberry Hill | | Change Station

Elev 7064 ft 36.43 °N, 105.60 °W | Updated 13 minutes ago

Overcast
Overcast
56.7 °F
Feels Like 56.7 °F
N
5.3
Wind Variable Wind from East

Today
High -- | Low -- °F
--% Chance of Precip.
Yesterday
High -- | Low -- °F
Precip. -- in
Pressure 30.30 in
Visibility 10.0 miles
Clouds Few 4900 ft
Mostly Cloudy 6000 ft
Overcast 7500 ft
Dew Point 47 °F
Humidity 71%
Rainfall 0.00 in
Snow Depth Not available.
6:27 AM 7:40 PM
Waning Gibbous, 51% visible
METAR KSKX 250035Z AUTO 11006KT 10SM FEW049 BKN060 OVC075 14/08 A3030 RMK AO1
Pressure 30.30 in
Visibility 10.0 miles
Clouds Few 4900 ft
Mostly Cloudy 6000 ft
Overcast 7500 ft
Dew Point 47 °F
Humidity 71%
Rainfall 0.00 in
Snow Depth Not available.
6:27 AM 7:40 PM
Waning Gibbous, 51% visible
METAR KSKX 250035Z AUTO 11006KT 10SM FEW049 BKN060 OVC075 14/08 A3030 RMK AO1

10-Day Weather Forecast

Almanac

Astronomy

Aug. 24, 2016 Rise Set
Actual Time
Civil Twilight
Nautical Twilight
Astronomical Twilight
Moon
Length of Visible Light
Length of Day
Tomorrow will be .
, % of the Moon is Illuminated

Today's Extremes

State Highs State Lows

Community

WunderPhotos

Upload Photos

1,934,748 photos uploaded!

WunderBlog® & News

Nearby

Air Quality

  Air Quality AQ Index Pollutant
Not available.

Snow Depth

Station Depth Elevation

Earthquake Activity

City Distance Mag. Time & Date
Minimum magnitude displayed is 2.5.

Coastal Water Temperatures

Place Temperature

Stations

Nearby Weather Stations

Station Location Temp. Windchill Dew Point Humidity Wind Precip. Elev Updated Type
                   

Watches & Warnings

There are currently no watches in effect.